Time;durP1;ratioP1;P1;durP2;ratioP2;P2;SDS_P1;SDS_P2;PMS_P1;PMS_P2;Temp;Humidity;BMP_temperature;BMP_pressure;BME280_temperature;BME280_humidity;BME280_pressure;Samples;Min_cycle;Max_cycle;Signal;HPM_P1;HPM_P2
2023/07/23 00:00:50;;;;;;;6.40;4.57;;;;;;;15.71;100.00;100885.28;5090377;28;19908;-37
2023/07/23 00:03:15;;;;;;;6.50;4.97;;;;;;;15.82;100.00;100897.09;5090599;28;20277;-37
2023/07/23 00:05:42;;;;;;;;;;;;;;;15.90;100.00;100893.84;5090689;28;20060;-37
2023/07/23 00:08:08;;;;;;;8.20;4.72;;;;;;;15.75;100.00;100885.59;5090219;28;20252;-37
2023/07/23 00:10:33;;;;;;;;;;;;;;;15.89;100.00;100886.75;5082239;28;20059;-37
2023/07/23 00:12:58;;;;;;;5.57;5.00;;;;;;;15.78;100.00;100891.34;5076326;28;20353;-37
2023/07/23 00:15:23;;;;;;;8.43;4.93;;;;;;;15.76;100.00;100882.59;5076276;28;20718;-37
2023/07/23 00:17:49;;;;;;;;;;;;;;;15.87;100.00;100880.75;5077206;28;20048;-37
2023/07/23 00:20:15;;;;;;;6.65;5.05;;;;;;;15.78;100.00;100874.97;5076221;28;19912;-37
2023/07/23 00:22:41;;;;;;;7.22;4.85;;;;;;;15.81;100.00;100874.47;5076206;28;20092;-37
2023/07/23 00:25:07;;;;;;;;;;;;;;;15.90;100.00;100861.94;5077338;28;20024;-37
2023/07/23 00:27:32;;;;;;;10.07;5.45;;;;;;;15.71;100.00;100866.22;5076397;28;19908;-37
2023/07/23 00:29:57;;;;;;;;;;;;;;;15.86;100.00;100862.75;5076462;28;20028;-37
2023/07/23 00:32:23;;;;;;;7.07;4.90;;;;;;;15.69;100.00;100839.22;5076013;28;19908;-37
2023/07/23 00:34:48;;;;;;;;;;;;;;;15.87;100.00;100851.59;5076306;28;20262;-37
2023/07/23 00:37:14;;;;;;;6.50;5.47;;;;;;;15.78;100.00;100836.81;5076777;28;19908;-37
2023/07/23 00:39:39;;;;;;;;;;;;;;;15.87;100.00;100845.31;5076837;28;20021;-37
2023/07/23 00:42:05;;;;;;;5.77;4.60;;;;;;;15.80;100.00;100831.91;5076616;28;19908;-37
2023/07/23 00:44:30;;;;;;;;;;;;;;;15.88;100.00;100831.41;5076699;28;20254;-37
2023/07/23 00:46:58;;;;;;;5.18;4.68;;;;;;;15.80;100.00;100822.91;5075510;28;19970;-37
2023/07/23 00:49:23;;;;;;;5.75;4.93;;;;;;;15.69;100.00;100817.41;5075699;28;20119;-37
2023/07/23 00:51:48;;;;;;;;;;;;;;;15.85;100.00;100820.19;5076169;28;20532;-37
2023/07/23 00:54:14;;;;;;;8.18;5.45;;;;;;;15.70;100.00;100805.41;5075579;28;19944;-36
2023/07/23 00:56:40;;;;;;;;;;;;;;;15.87;100.00;100818.03;5076545;28;20068;-37
2023/07/23 00:59:07;;;;;;;5.15;4.53;;;;;;;15.78;100.00;100815.00;5075654;28;19912;-36
2023/07/23 01:01:32;;;;;;;5.93;4.82;;;;;;;15.77;100.00;100807.91;5075471;28;20028;-37
2023/07/23 01:03:57;;;;;;;;;;;;;;;15.86;100.00;100800.88;5075800;28;20025;-37
2023/07/23 01:06:26;;;;;;;4.90;4.40;;;;;;;15.79;100.00;100799.47;5075043;28;20309;-37
2023/07/23 01:08:55;;;;;;;5.22;4.68;;;;;;;15.75;100.00;100788.25;5075775;28;20267;-37
2023/07/23 01:11:22;;;;;;;8.23;5.00;;;;;;;15.75;100.00;100793.72;5075563;28;20020;-37
2023/07/23 01:13:49;;;;;;;6.97;4.53;;;;;;;15.72;100.00;100779.81;5075174;28;20050;-37
2023/07/23 01:16:15;;;;;;;5.82;4.85;;;;;;;15.77;100.00;100782.56;5075436;28;20334;-37
2023/07/23 01:18:41;;;;;;;5.25;4.38;;;;;;;15.73;100.00;100776.00;5075279;28;20107;-37
2023/07/23 01:21:06;;;;;;;5.78;4.53;;;;;;;15.72;100.00;100766.19;5074737;28;20017;-37
2023/07/23 01:23:32;;;;;;;;;;;;;;;15.85;100.00;100765.66;5074820;28;20021;-37
2023/07/23 01:25:58;;;;;;;6.30;4.50;;;;;;;15.70;100.00;100764.53;5075256;28;19999;-36
2023/07/23 01:28:23;;;;;;;;;;;;;;;15.82;100.00;100761.59;5075025;28;20044;-37
2023/07/23 01:30:48;;;;;;;4.85;3.83;;;;;;;15.75;100.00;100754.72;5075659;28;19904;-37
2023/07/23 01:33:14;;;;;;;;;;;;;;;15.82;100.00;100752.59;5075206;28;20039;-37
2023/07/23 01:35:40;;;;;;;6.18;3.80;;;;;;;15.66;100.00;100738.91;5075049;28;20316;-37
2023/07/23 01:38:05;;;;;;;;;;;;;;;15.82;100.00;100741.69;5075972;28;20469;-37
2023/07/23 01:40:30;;;;;;;4.93;3.92;;;;;;;15.70;100.00;100737.25;5075226;28;19962;-37
2023/07/23 01:42:56;;;;;;;;;;;;;;;15.79;100.00;100734.84;5075016;28;20066;-36
2023/07/23 01:45:21;;;;;;;6.47;4.30;;;;;;;15.62;100.00;100735.03;5074492;28;19972;-37
2023/07/23 01:47:46;;;;;;;;;;;;;;;15.76;100.00;100734.56;5075574;28;20021;-37
2023/07/23 01:50:12;;;;;;;5.50;4.20;;;;;;;15.60;100.00;100729.03;5074407;28;19908;-37
2023/07/23 01:52:37;;;;;;;;;;;;;;;15.72;100.00;100728.84;5075228;28;20262;-37
2023/07/23 01:55:03;;;;;;;4.77;3.83;;;;;;;15.65;100.00;100717.34;5074859;28;20332;-37
2023/07/23 01:57:28;;;;;;;;;;;;;;;15.72;100.00;100717.13;5074767;28;20035;-37
2023/07/23 01:59:53;;;;;;;5.27;4.10;;;;;;;15.60;100.00;100698.22;5074038;28;19951;-37
2023/07/23 02:02:18;;;;;;;;;;;;;;;15.73;100.00;100714.13;5074681;28;20255;-37
2023/07/23 02:04:44;;;;;;;3.93;3.53;;;;;;;15.60;100.00;100703.69;5073956;28;20390;-37
2023/07/23 02:07:09;;;;;;;;;;;;;;;15.67;100.00;100702.38;5075158;28;20263;-37
2023/07/23 02:09:34;;;;;;;4.85;3.92;;;;;;;15.53;100.00;100698.50;5074158;28;19974;-37
2023/07/23 02:11:59;;;;;;;;;;;;;;;15.62;100.00;100696.88;5074545;28;20028;-37
2023/07/23 02:14:25;;;;;;;7.03;4.43;;;;;;;15.55;100.00;100696.31;5073651;28;19904;-37
2023/07/23 02:16:50;;;;;;;;;;;;;;;15.62;100.00;100687.91;5075012;28;20035;-38
2023/07/23 02:19:15;;;;;;;7.30;4.20;;;;;;;15.48;100.00;100684.03;5073847;28;19908;-36
2023/07/23 02:21:41;;;;;;;6.88;4.13;;;;;;;15.45;100.00;100672.56;5074039;28;20255;-36
2023/07/23 02:24:06;;;;;;;;;;;;;;;15.61;100.00;100678.88;5074310;28;20024;-36
2023/07/23 02:26:31;;;;;;;6.15;4.38;;;;;;;15.51;100.00;100669.84;5074187;28;19999;-36
2023/07/23 02:28:57;;;;;;;;;;;;;;;15.62;100.00;100663.38;5074260;28;20024;-36
2023/07/23 02:31:22;;;;;;;5.70;4.50;;;;;;;15.50;100.00;100666.31;5073804;28;19904;-36
2023/07/23 02:33:47;;;;;;;;;;;;;;;15.60;100.00;100658.16;5073648;28;20287;-36
2023/07/23 02:36:13;;;;;;;4.68;3.97;;;;;;;15.48;100.00;100656.78;5073818;28;19911;-36
2023/07/23 02:38:38;;;;;;;;;;;;;;;15.61;100.00;100656.25;5073816;28;20021;-36
2023/07/23 02:41:03;;;;;;;5.10;3.70;;;;;;;15.51;100.00;100646.13;5073466;28;19916;-36
2023/07/23 02:43:29;;;;;;;;;;;;;;;15.64;100.00;100653.03;5074077;28;20349;-36
2023/07/23 02:45:54;;;;;;;4.55;4.10;;;;;;;15.48;100.00;100641.25;5073690;28;20259;-36
2023/07/23 02:48:19;;;;;;;;;;;;;;;15.65;100.00;100646.47;5074289;28;20056;-36
2023/07/23 02:50:45;;;;;;;6.23;4.03;;;;;;;15.59;100.00;100640.19;5073646;28;19954;-36
2023/07/23 02:53:10;;;;;;;;;;;;;;;15.66;100.00;100645.38;5073700;28;20028;-36
2023/07/23 02:55:36;;;;;;;5.47;4.00;;;;;;;15.56;100.00;100639.88;5073817;28;19908;-36
2023/07/23 02:58:03;;;;;;;5.15;4.15;;;;;;;15.54;100.00;100639.34;5073449;28;20266;-36
2023/07/23 03:00:32;;;;;;;5.45;4.20;;;;;;;15.52;100.00;100642.34;5073520;28;20028;-36
2023/07/23 03:02:57;;;;;;;6.13;4.20;;;;;;;15.56;100.00;100640.69;5073725;28;20062;-36
2023/07/23 03:05:24;;;;;;;;;;;;;;;15.63;100.00;100633.13;5073875;28;20387;-36
2023/07/23 03:07:51;;;;;;;11.13;4.23;;;;;;;15.60;100.00;100633.63;5073746;28;19908;-36
2023/07/23 03:10:16;;;;;;;7.20;3.70;;;;;;;15.59;100.00;100639.34;5073439;28;20082;-36
2023/07/23 03:12:41;;;;;;;;;;;;;;;15.66;100.00;100629.88;5073514;28;20032;-35
2023/07/23 03:15:07;;;;;;;6.07;3.60;;;;;;;15.60;100.00;100630.09;5073112;28;19911;-35
2023/07/23 03:17:33;;;;;;;;;;;;;;;15.62;100.00;100630.66;5074086;28;20297;-35
2023/07/23 03:19:58;;;;;;;6.30;3.30;;;;;;;15.63;100.00;100633.13;5072918;28;19912;-36
2023/07/23 03:22:23;;;;;;;;;;;;;;;15.69;100.00;100626.59;5073740;28;20059;-36
2023/07/23 03:24:50;;;;;;;5.78;3.47;;;;;;;15.67;100.00;100617.88;5073252;28;19911;-36
2023/07/23 03:27:15;;;;;;;4.80;3.25;;;;;;;15.69;100.00;100615.69;5073027;28;20020;-36
2023/07/23 03:29:40;;;;;;;;;;;;;;;15.77;100.00;100630.72;5073627;28;20371;-35
2023/07/23 03:32:06;;;;;;;3.92;3.05;;;;;;;15.77;100.00;100627.16;5074333;28;20017;-35
2023/07/23 03:34:31;;;;;;;;;;;;;;;15.83;100.00;100632.34;5073616;28;20387;-35
2023/07/23 03:36:56;;;;;;;8.00;3.30;;;;;;;15.80;100.00;100615.69;5073762;28;19904;-35
2023/07/23 03:39:22;;;;;;;;;;;;;;;15.86;100.00;100620.91;5073520;28;20460;-35
2023/07/23 03:41:47;;;;;;;3.88;2.70;;;;;;;15.88;100.00;100623.34;5073097;28;19908;-35
2023/07/23 03:44:13;;;;;;;;;;;;;;;15.93;100.00;100620.63;5073779;28;20106;-36
2023/07/23 03:46:43;;;;;;;7.00;3.35;;;;;;;15.91;100.00;100623.63;5076182;28;20344;-36
2023/07/23 03:49:09;;;;;;;4.93;2.78;;;;;;;15.91;100.00;100614.63;5077349;28;20028;-36
2023/07/23 03:51:34;;;;;;;;;;;;;;;15.94;100.00;100612.16;5077237;28;20024;-35
2023/07/23 03:53:59;;;;;;;4.47;2.57;;;;;;;15.94;100.00;100611.34;5076691;28;19908;-35
2023/07/23 03:56:25;;;;;;;;;;;;;;;15.97;100.00;100616.28;5077382;28;20702;-36
2023/07/23 03:58:50;;;;;;;4.35;2.92;;;;;;;15.96;100.00;100620.09;5076758;28;20264;-35
2023/07/23 04:01:15;;;;;;;;;;;;;;;15.99;100.00;100619.53;5076789;28;20032;-36
2023/07/23 04:03:41;;;;;;;6.30;3.20;;;;;;;16.00;100.00;100612.97;5076558;28;20346;-36
2023/07/23 04:06:06;;;;;;;;;;;;;;;16.04;100.00;100616.81;5076711;28;20247;-36
2023/07/23 04:08:32;;;;;;;5.57;2.93;;;;;;;15.99;100.00;100613.25;5077267;28;19905;-36
2023/07/23 04:10:57;;;;;;;;;;;;;;;16.08;100.00;100622.53;5076806;28;20262;-36
2023/07/23 04:13:22;;;;;;;3.45;2.50;;;;;;;15.99;100.00;100610.53;5076036;28;19904;-36
2023/07/23 04:15:48;;;;;;;;;;;;;;;16.09;100.00;100624.16;5077046;28;20047;-36
2023/07/23 04:18:14;;;;;;;5.63;2.63;;;;;;;16.02;100.00;100619.00;5076221;28;19908;-36
2023/07/23 04:20:40;;;;;;;7.20;2.40;;;;;;;16.05;100.00;100625.81;5076298;28;20262;-37
2023/07/23 04:23:05;;;;;;;5.18;2.65;;;;;;;16.06;100.00;100622.00;5076944;28;20020;-36
2023/07/23 04:25:31;;;;;;;;;;;;;;;16.12;100.00;100623.63;5077211;28;20425;-36
2023/07/23 04:27:56;;;;;;;5.57;2.70;;;;;;;16.04;100.00;100616.00;5076945;28;19958;-36
2023/07/23 04:30:21;;;;;;;;;;;;;;;16.16;100.00;100628.28;5076784;28;20271;-36
2023/07/23 04:32:47;;;;;;;5.13;2.60;;;;;;;16.14;100.00;100627.72;5076824;28;19904;-36
2023/07/23 04:35:12;;;;;;;;;;;;;;;16.18;100.00;100626.06;5076987;28;20329;-36
2023/07/23 04:37:37;;;;;;;3.30;2.60;;;;;;;16.18;100.00;100628.81;5075642;28;19908;-36
2023/07/23 04:40:02;;;;;;;;;;;;;;;16.25;100.00;100627.72;5075921;28;20310;-36
2023/07/23 04:42:28;;;;;;;4.00;2.80;;;;;;;16.14;100.00;100626.91;5075894;28;19916;-36
2023/07/23 04:44:53;;;;;;;;;;;;;;;16.24;100.00;100626.88;5076230;28;20027;-36
2023/07/23 04:47:19;;;;;;;8.40;2.90;;;;;;;16.23;100.00;100622.53;5076340;28;19915;-36
2023/07/23 04:49:44;;;;;;;;;;;;;;;16.29;100.00;100623.34;5076135;28;20035;-36
2023/07/23 04:52:11;;;;;;;3.97;2.40;;;;;;;16.23;100.00;100617.88;5076053;28;19908;-36
2023/07/23 04:54:36;;;;;;;5.38;2.72;;;;;;;16.25;100.00;100622.25;5075241;28;20287;-36
2023/07/23 04:57:01;;;;;;;;;;;;;;;16.32;100.00;100622.81;5075876;28;20031;-36
2023/07/23 04:59:27;;;;;;;5.50;2.33;;;;;;;16.25;100.00;100622.25;5076227;28;19918;-36
2023/07/23 05:01:52;;;;;;;;;;;;;;;16.31;100.00;100610.25;5075967;28;20283;-36
2023/07/23 05:04:17;;;;;;;3.50;2.43;;;;;;;16.24;100.00;100615.97;5075430;28;20233;-36
2023/07/23 05:06:42;;;;;;;;;;;;;;;16.31;100.00;100605.63;5075510;28;20267;-36
2023/07/23 05:09:08;;;;;;;4.07;2.17;;;;;;;16.30;100.00;100619.50;5075054;28;19912;-36
2023/07/23 05:11:33;;;;;;;;;;;;;;;16.35;100.00;100619.53;5075744;28;20025;-36
2023/07/23 05:13:58;;;;;;;3.58;2.58;;;;;;;16.33;100.00;100614.34;5075220;28;19912;-36
2023/07/23 05:16:24;;;;;;;;;;;;;;;16.39;100.00;100623.31;5076220;28;20024;-36
2023/07/23 05:18:49;;;;;;;5.13;2.20;;;;;;;16.33;100.00;100619.78;5075266;28;19908;-36
2023/07/23 05:21:14;;;;;;;;;;;;;;;16.40;100.00;100623.06;5075516;28;20640;-36
2023/07/23 05:23:40;;;;;;;4.30;2.53;;;;;;;16.36;100.00;100618.44;5075063;28;20365;-36
2023/07/23 05:26:05;;;;;;;;;;;;;;;16.41;100.00;100624.69;5076004;28;20301;-36
2023/07/23 05:28:30;;;;;;;6.45;2.55;;;;;;;16.36;100.00;100629.34;5075480;28;20438;-36
2023/07/23 05:30:56;;;;;;;;;;;;;;;16.40;100.00;100625.81;5075377;28;20024;-36
2023/07/23 05:33:21;;;;;;;4.43;2.75;;;;;;;16.28;100.00;100619.81;5074860;28;19915;-36
2023/07/23 05:35:46;;;;;;;;;;;;;;;16.36;100.00;100621.16;5074982;28;20074;-36
2023/07/23 05:38:12;;;;;;;4.50;2.70;;;;;;;16.31;100.00;100627.44;5074391;28;19911;-36
2023/07/23 05:40:37;;;;;;;;;;;;;;;16.35;100.00;100616.81;5075441;28;20274;-36
2023/07/23 05:43:08;;;;;;;4.03;2.40;;;;;;;16.27;100.00;100617.34;5075454;28;19911;-36
2023/07/23 05:45:34;;;;;;;3.47;2.42;;;;;;;16.26;100.00;100607.53;5074346;28;20295;-36
2023/07/23 05:47:59;;;;;;;;;;;;;;;16.34;100.00;100620.59;5075001;28;20048;-36
2023/07/23 05:50:24;;;;;;;9.68;2.80;;;;;;;16.27;100.00;100615.44;5075014;28;19909;-36
2023/07/23 05:52:50;;;;;;;;;;;;;;;16.34;100.00;100615.97;5074926;28;20024;-36
2023/07/23 05:55:15;;;;;;;4.93;2.53;;;;;;;16.26;100.00;100610.28;5074666;28;19940;-36
2023/07/23 05:57:40;;;;;;;;;;;;;;;16.33;100.00;100608.06;5075171;28;20731;-36
2023/07/23 06:00:06;;;;;;;5.87;2.77;;;;;;;16.25;100.00;100612.19;5074734;28;19916;-36
2023/07/23 06:02:31;;;;;;;;;;;;;;;16.31;100.00;100611.06;5074406;28;20254;-36
2023/07/23 06:04:57;;;;;;;4.90;2.80;;;;;;;16.24;100.00;100610.53;5074188;28;19962;-36
2023/07/23 06:07:22;;;;;;;;;;;;;;;16.29;100.00;100606.97;5074392;28;20258;-36
2023/07/23 06:09:47;;;;;;;4.83;2.70;;;;;;;16.25;100.00;100600.41;5073845;28;19908;-36
2023/07/23 06:12:12;;;;;;;;;;;;;;;16.32;100.00;100609.16;5074310;28;20342;-36
2023/07/23 06:14:38;;;;;;;7.67;2.93;;;;;;;16.28;100.00;100606.16;5073782;28;19913;-36
2023/07/23 06:17:03;;;;;;;;;;;;;;;16.37;100.00;100622.81;5074782;28;20254;-36
2023/07/23 06:19:29;;;;;;;3.60;2.47;;;;;;;16.30;100.00;100608.59;5074619;28;20340;-36
2023/07/23 06:21:54;;;;;;;;;;;;;;;16.33;100.00;100611.59;5074945;28;20031;-36
2023/07/23 06:24:19;;;;;;;3.17;2.27;;;;;;;16.22;100.00;100608.06;5074215;28;19912;-36
2023/07/23 06:26:44;;;;;;;;;;;;;;;16.27;100.00;100620.91;5074624;28;20292;-36
2023/07/23 06:29:10;;;;;;;3.57;2.23;;;;;;;16.09;100.00;100608.63;5073547;28;19911;-36
2023/07/23 06:31:35;;;;;;;;;;;;;;;16.21;100.00;100617.34;5074479;28;20263;-36
2023/07/23 06:34:00;;;;;;;4.93;2.50;;;;;;;16.09;100.00;100618.72;5073508;28;20050;-36
2023/07/23 06:36:26;;;;;;;;;;;;;;;16.13;100.00;100626.09;5074777;28;20524;-36
2023/07/23 06:38:51;;;;;;;3.47;2.40;;;;;;;16.09;100.00;100624.97;5073589;28;19908;-36
2023/07/23 06:41:16;;;;;;;;;;;;;;;16.15;100.00;100631.25;5074725;28;20247;-36
2023/07/23 06:43:41;;;;;;;6.07;2.97;;;;;;;16.00;100.00;100615.72;5073393;28;20352;-36
2023/07/23 06:46:07;;;;;;;;;;;;;;;16.19;100.00;100635.91;5074366;28;20723;-36
2023/07/23 06:48:32;;;;;;;4.70;2.43;;;;;;;16.13;100.00;100636.19;5073656;28;20333;-36
2023/07/23 06:50:57;;;;;;;;;;;;;;;16.19;100.00;100641.34;5074040;28;20270;-36
2023/07/23 06:53:23;;;;;;;3.53;2.45;;;;;;;16.07;100.00;100643.53;5073249;28;19904;-36
2023/07/23 06:55:58;;;;;;;;;;;;;;;16.21;100.00;100654.75;5074848;28;20081;-36
2023/07/23 06:58:24;;;;;;;4.18;2.72;;;;;;;16.09;100.00;100644.06;5073423;28;19987;-36
2023/07/23 07:00:49;;;;;;;;;;;;;;;16.18;100.00;100652.53;5073969;28;20476;-36
2023/07/23 07:03:15;;;;;;;5.53;2.83;;;;;;;16.08;100.00;100642.44;5073524;28;20329;-36
2023/07/23 07:05:40;;;;;;;;;;;;;;;16.20;100.00;100658.53;5073935;28;20591;-36
2023/07/23 07:08:05;;;;;;;4.03;3.03;;;;;;;15.95;100.00;100649.25;5073513;28;19908;-36
2023/07/23 07:10:31;;;;;;;;;;;;;;;15.99;100.00;100646.81;5074075;28;20267;-36
2023/07/23 07:12:56;;;;;;;6.50;3.40;;;;;;;15.90;100.00;100653.88;5073719;28;20301;-36
2023/07/23 07:15:21;;;;;;;;;;;;;;;15.91;100.00;100650.91;5073852;28;20024;-36
2023/07/23 07:17:46;;;;;;;8.05;3.42;;;;;;;15.79;100.00;100641.34;5074171;28;19954;-36
2023/07/23 07:20:12;;;;;;;;;;;;;;;15.88;100.00;100651.44;5074673;28;20017;-36
2023/07/23 07:22:37;;;;;;;5.00;3.53;;;;;;;15.77;100.00;100643.53;5077445;28;19913;-36
2023/07/23 07:25:02;;;;;;;;;;;;;;;15.84;100.00;100644.06;5077554;28;20111;-36
2023/07/23 07:27:28;;;;;;;7.10;3.50;;;;;;;15.69;100.00;100634.78;5077290;28;19908;-36
2023/07/23 07:29:53;;;;;;;;;;;;;;;15.82;100.00;100647.06;5077692;28;20055;-36
2023/07/23 07:32:18;;;;;;;4.85;3.50;;;;;;;15.68;100.00;100641.31;5077524;28;19991;-36
2023/07/23 07:34:43;;;;;;;;;;;;;;;15.78;100.00;100647.88;5077546;28;20024;-36
2023/07/23 07:37:09;;;;;;;5.30;3.80;;;;;;;15.62;100.00;100642.38;5077059;28;19915;-36
2023/07/23 07:39:34;;;;;;;3.72;3.10;;;;;;;15.64;100.00;100637.50;5077022;28;20290;-36
2023/07/23 07:41:59;;;;;;;;;;;;;;;15.78;100.00;100645.97;5077425;28;20039;-36
2023/07/23 07:44:25;;;;;;;5.27;3.57;;;;;;;15.67;100.00;100644.31;5077204;28;19912;-36
2023/07/23 07:46:51;;;;;;;;;;;;;;;15.77;100.00;100643.53;5077909;28;20263;-36
2023/07/23 07:49:16;;;;;;;6.65;3.92;;;;;;;15.75;100.00;100651.13;5076855;28;19927;-37
2023/07/23 07:51:43;;;;;;;;;;;;;;;15.87;100.00;100643.53;5077231;28;20033;-37
2023/07/23 07:54:09;;;;;;;4.72;3.88;;;;;;;15.87;100.00;100643.53;5076731;28;19910;-37
2023/07/23 07:56:35;;;;;;;4.50;3.75;;;;;;;15.88;100.00;100634.25;5076706;28;20056;-36
2023/07/23 07:59:04;;;;;;;;;;;;;;;16.06;100.00;100643.81;5076780;28;20083;-37
2023/07/23 08:01:29;;;;;;;6.40;4.18;;;;;;;15.92;100.00;100627.19;5076910;28;19951;-37
2023/07/23 08:03:55;;;;;;;;;;;;;;;16.08;100.00;100639.72;5077262;28;20071;-37
2023/07/23 08:06:22;;;;;;;4.20;3.80;;;;;;;16.02;100.00;100645.47;5076566;28;20003;-37
2023/07/23 08:08:50;;;;;;;6.25;3.70;;;;;;;16.05;100.00;100648.44;5076161;28;20029;-36
2023/07/23 08:11:16;;;;;;;6.57;4.32;;;;;;;16.08;100.00;100639.72;5076712;28;20032;-37
2023/07/23 08:13:42;;;;;;;5.63;3.70;;;;;;;16.04;100.00;100644.06;5076670;28;20017;-37
2023/07/23 08:16:07;;;;;;;;;;;;;;;16.13;100.00;100639.72;5076788;28;20021;-36
2023/07/23 08:18:33;;;;;;;4.32;3.60;;;;;;;16.02;100.00;100646.28;5075919;28;19934;-37
2023/07/23 08:20:58;;;;;;;;;;;;;;;16.08;100.00;100647.91;5076484;28;20376;-37
2023/07/23 08:23:25;;;;;;;4.70;3.67;;;;;;;15.94;100.00;100655.78;5076487;28;19911;-37
2023/07/23 08:25:53;;;;;;;6.45;3.80;;;;;;;15.91;100.00;100636.47;5075896;28;20157;-37
2023/07/23 08:28:29;;;;;;;3.97;3.30;;;;;;;15.98;100.00;100638.91;5076138;28;20470;-37
2023/07/23 08:30:57;;;;;;;4.65;3.83;;;;;;;15.91;100.00;100628.28;5076192;28;20016;-37
2023/07/23 08:33:29;;;;;;;3.92;3.28;;;;;;;16.04;100.00;100637.81;5076037;28;20475;-37
2023/07/23 08:35:56;;;;;;;4.68;2.83;;;;;;;16.03;100.00;100637.00;5076305;28;20024;-36
2023/07/23 08:38:23;;;;;;;3.88;3.40;;;;;;;16.03;100.00;100626.09;5075862;28;20056;-37
2023/07/23 08:40:55;;;;;;;4.70;3.30;;;;;;;16.05;100.00;100626.63;5075621;28;20027;-37
2023/07/23 08:43:35;;;;;;;4.13;2.85;;;;;;;16.12;100.00;100640.81;5076223;28;20029;-37
2023/07/23 08:46:20;;;;;;;4.25;2.58;;;;;;;16.10;100.00;100640.25;5076403;28;20037;-36
2023/07/23 08:48:54;;;;;;;3.33;2.75;;;;;;;16.12;100.00;100649.00;5076273;28;20115;-36
2023/07/23 08:51:23;;;;;;;3.65;2.65;;;;;;;16.14;100.00;100644.06;5075437;28;20522;-36
2023/07/23 08:53:48;;;;;;;3.08;2.53;;;;;;;16.15;100.00;100643.00;5075883;28;20017;-37
2023/07/23 08:56:14;;;;;;;;;;;;;;;16.25;100.00;100644.06;5076132;28;20150;-37
2023/07/23 08:58:41;;;;;;;2.72;2.30;;;;;;;16.26;100.00;100641.09;5075564;28;19966;-37
2023/07/23 09:01:08;;;;;;;3.67;2.40;;;;;;;16.23;100.00;100637.00;5075533;28;20017;-37
2023/07/23 09:03:33;;;;;;;2.53;2.15;;;;;;;16.21;100.00;100636.47;5075408;28;20061;-37
2023/07/23 09:06:00;;;;;;;;;;;;;;;16.37;100.00;100650.09;5076196;28;20024;-37
2023/07/23 09:08:25;;;;;;;3.33;2.42;;;;;;;16.33;100.00;100646.25;5075590;28;20275;-37
2023/07/23 09:10:50;;;;;;;;;;;;;;;16.39;100.00;100645.97;5076651;28;20028;-37
2023/07/23 09:13:16;;;;;;;2.25;1.90;;;;;;;16.23;100.00;100641.63;5075234;28;19927;-37
2023/07/23 09:15:41;;;;;;;;;;;;;;;16.37;100.00;100652.81;5075970;28;20028;-37
2023/07/23 09:18:08;;;;;;;2.50;2.05;;;;;;;16.37;100.00;100641.91;5075417;28;20252;-36
2023/07/23 09:20:34;;;;;;;2.53;1.95;;;;;;;16.36;100.00;100641.09;5075075;28;20055;-37
2023/07/23 09:23:08;;;;;;;;;;;;;;;16.46;100.00;100648.44;5075821;28;20137;-37
2023/07/23 09:25:34;;;;;;;2.13;1.83;;;;;;;16.47;100.00;100644.63;5075018;28;20470;-37
2023/07/23 09:27:59;;;;;;;;;;;;;;;16.54;100.00;100647.06;5076028;28;20108;-37
2023/07/23 09:30:25;;;;;;;2.42;1.70;;;;;;;16.48;100.00;100651.69;5074891;28;19904;-37
2023/07/23 09:32:56;;;;;;;2.28;1.60;;;;;;;16.47;100.00;100652.81;5074878;28;20029;-37
2023/07/23 09:35:23;;;;;;;2.08;1.58;;;;;;;16.52;100.00;100649.25;5074553;28;20452;-36
2023/07/23 09:37:57;;;;;;;5.57;2.95;;;;;;;16.56;100.00;100659.34;5075627;28;20360;-37
2023/07/23 09:40:35;;;;;;;2.08;1.67;;;;;;;16.53;100.00;100657.16;5074599;28;20027;-37
2023/07/23 09:43:01;;;;;;;1.95;1.40;;;;;;;16.51;100.00;100662.09;5074111;28;20031;-37
2023/07/23 09:45:28;;;;;;;;;;;;;;;16.64;100.00;100657.94;5075019;28;20028;-37
2023/07/23 09:47:53;;;;;;;2.20;1.80;;;;;;;16.50;100.00;100644.06;5075383;28;19904;-37
2023/07/23 09:50:19;;;;;;;;;;;;;;;16.60;100.00;100654.16;5075224;28;20443;-37
2023/07/23 09:52:45;;;;;;;1.98;1.55;;;;;;;16.46;100.00;100640.25;5074753;28;20003;-37
2023/07/23 09:55:10;;;;;;;;;;;;;;;16.58;100.00;100657.16;5075647;28;20024;-37
2023/07/23 09:57:38;;;;;;;1.63;1.40;;;;;;;16.48;100.00;100659.88;5074667;28;19904;-37
2023/07/23 10:00:05;;;;;;;2.00;1.73;;;;;;;16.43;100.00;100657.97;5074197;28;20549;-37
2023/07/23 10:02:33;;;;;;;2.13;1.80;;;;;;;16.39;100.00;100664.25;5074294;28;20068;-37
2023/07/23 10:05:00;;;;;;;2.30;1.90;;;;;;;16.32;100.00;100659.09;5074766;28;20024;-37
2023/07/23 10:07:25;;;;;;;3.70;1.90;;;;;;;16.25;100.00;100663.16;5074266;28;20031;-37
2023/07/23 10:09:52;;;;;;;;;;;;;;;16.31;100.00;100665.66;5074511;28;20376;-37
2023/07/23 10:12:18;;;;;;;2.38;1.90;;;;;;;16.17;100.00;100642.72;5074970;28;20272;-37
2023/07/23 10:14:43;;;;;;;;;;;;;;;16.26;100.00;100667.56;5074490;28;20020;-37
2023/07/23 10:17:09;;;;;;;2.70;2.17;;;;;;;16.17;100.00;100670.00;5074313;28;19908;-37
2023/07/23 10:19:35;;;;;;;2.13;1.77;;;;;;;16.18;100.00;100677.09;5073596;28;20274;-37
2023/07/23 10:22:01;;;;;;;;;;;;;;;16.21;100.00;100674.66;5074969;28;20513;-37
2023/07/23 10:24:40;;;;;;;2.72;2.10;;;;;;;16.16;100.00;100663.75;5073936;28;20355;-37
2023/07/23 10:27:12;;;;;;;2.45;1.75;;;;;;;16.17;100.00;100668.09;5074184;28;20024;-37
2023/07/23 10:29:38;;;;;;;2.55;2.15;;;;;;;16.16;100.00;100677.38;5074443;28;20368;-37
2023/07/23 10:32:22;;;;;;;;;;;;;;;16.23;100.00;100669.72;5074574;28;20021;-37
2023/07/23 10:34:48;;;;;;;1.83;1.67;;;;;;;16.19;100.00;100668.63;5074042;28;19904;-37
2023/07/23 10:37:21;;;;;;;;;;;;;;;16.30;100.00;100671.34;5073871;28;20476;-37
2023/07/23 10:39:49;;;;;;;2.72;2.10;;;;;;;16.17;100.00;100664.56;5073442;28;19930;-36
2023/07/23 10:42:35;;;;;;;2.78;1.85;;;;;;;16.20;100.00;100669.44;5073654;28;20020;-36
2023/07/23 10:45:19;;;;;;;2.50;2.17;;;;;;;16.23;100.00;100680.63;5073381;28;20488;-36
2023/07/23 10:47:48;;;;;;;2.53;1.90;;;;;;;16.21;100.00;100680.09;5073618;28;20042;-36
2023/07/23 10:50:15;;;;;;;2.97;2.03;;;;;;;16.22;100.00;100661.81;5073342;28;20031;-36
2023/07/23 10:52:52;;;;;;;2.33;2.10;;;;;;;16.27;100.00;100669.19;5073312;28;20020;-36
2023/07/23 10:55:36;;;;;;;;;;;;;;;16.37;100.00;100669.19;5073864;28;20056;-36
2023/07/23 10:58:11;;;;;;;2.92;2.00;;;;;;;16.41;100.00;100670.28;5073596;28;20319;-36
2023/07/23 11:00:42;;;;;;;4.07;2.00;;;;;;;16.37;100.00;100658.28;5074352;28;20101;-36
2023/07/23 11:03:17;;;;;;;2.28;2.08;;;;;;;16.48;100.00;100670.81;5074065;28;20513;-36
2023/07/23 11:05:43;;;;;;;2.75;2.20;;;;;;;16.55;100.00;100668.63;5073431;28;20016;-37
2023/07/23 11:08:19;;;;;;;2.67;2.47;;;;;;;16.56;100.00;100673.00;5074333;28;20020;-36
2023/07/23 11:10:57;;;;;;;2.35;2.15;;;;;;;16.65;100.00;100665.88;5073727;28;20028;-36
2023/07/23 11:13:25;;;;;;;2.45;2.25;;;;;;;16.79;100.00;100668.06;5074056;28;20025;-36
2023/07/23 11:15:50;;;;;;;3.92;2.63;;;;;;;16.88;100.00;100669.13;5073320;28;20025;-36
2023/07/23 11:18:16;;;;;;;;;;;;;;;17.00;100.00;100661.47;5073405;28;20032;-36
2023/07/23 11:20:48;;;;;;;3.17;2.50;;;;;;;17.09;100.00;100645.31;5073309;28;19918;-36
2023/07/23 11:23:16;;;;;;;2.97;2.55;;;;;;;17.52;100.00;100662.88;5073067;28;20791;-36
2023/07/23 11:25:43;;;;;;;3.33;2.28;;;;;;;17.91;100.00;100656.63;5073290;28;20025;-36
2023/07/23 11:28:08;;;;;;;2.75;2.55;;;;;;;18.14;100.00;100655.91;5073831;28;20028;-36
2023/07/23 11:30:34;;;;;;;3.13;2.55;;;;;;;18.25;100.00;100643.81;5074023;28;20069;-36
2023/07/23 11:33:02;;;;;;;2.75;2.42;;;;;;;18.49;100.00;100653.97;5073248;28;20115;-36
2023/07/23 11:35:28;;;;;;;3.15;2.60;;;;;;;18.50;100.00;100656.44;5073214;28;20102;-36
2023/07/23 11:37:53;;;;;;;4.13;2.50;;;;;;;18.46;100.00;100654.56;5073416;28;20043;-36